createdAt,value
2022-09-02T00:02:07.379Z,341.41935
2022-09-02T00:07:09.068Z,403.70149
2022-09-02T00:12:10.646Z,349.26316
2022-09-02T00:17:12.256Z,333.87342
2022-09-02T00:22:13.837Z,212.99563
2022-09-02T00:27:15.444Z,250.46766
2022-09-02T00:32:17.038Z,171.30627
2022-09-02T00:37:18.712Z,179.1145
2022-09-02T00:42:20.320Z,138.32177
2022-09-02T00:47:22.264Z,172.99628
2022-09-02T00:52:23.862Z,126.24852
2022-09-02T00:57:25.751Z,139.55556
2022-09-02T01:02:27.431Z,145.96721
2022-09-02T01:07:29.070Z,160.90141
2022-09-02T01:12:32.410Z,118.0113
2022-09-02T01:17:34.006Z,130.66667
2022-09-02T01:22:35.616Z,147.97351
2022-09-02T01:27:37.327Z,117.52113
2022-09-02T01:32:38.989Z,137.71069
2022-09-02T01:37:40.576Z,124.11696
2022-09-02T01:42:49.163Z,125.71091
2022-09-02T01:47:50.753Z,115.11111
2022-09-02T01:52:52.337Z,134.71207
2022-09-02T01:57:53.979Z,120
2022-09-02T02:02:55.551Z,134.12346
2022-09-02T02:07:57.141Z,124.64516
2022-09-02T02:12:58.715Z,98
2022-09-02T02:18:00.340Z,96.8536
2022-09-02T02:23:01.936Z,97.61596
2022-09-02T02:28:03.695Z,97.61596
2022-09-02T02:33:07.205Z,122.03468
2022-09-02T02:38:08.807Z,109.5914
2022-09-02T02:43:10.392Z,131.80488
2022-09-02T02:48:12.002Z,126.78932
2022-09-02T02:53:14.905Z,150.02007
2022-09-02T02:58:16.719Z,102.35476
2022-09-02T03:03:18.604Z,96.09877
2022-09-02T03:08:20.200Z,89.97156
2022-09-02T03:13:21.951Z,85.93548
2022-09-02T03:18:23.700Z,95.35135
2022-09-02T03:23:25.322Z,117.03371
2022-09-02T03:28:26.919Z,118.50425
2022-09-02T03:33:28.715Z,107.39523
2022-09-02T03:38:30.345Z,113.69697
2022-09-02T03:43:31.924Z,96.8536
2022-09-02T03:48:33.544Z,107.82979
2022-09-02T03:53:35.147Z,123.06977
2022-09-02T03:58:36.759Z,113.69697
2022-09-02T04:03:38.345Z,110.93767
2022-09-02T04:08:39.942Z,101.14286
2022-09-02T04:13:41.522Z,100.34518
2022-09-02T04:18:43.306Z,95.35135
2022-09-02T04:23:44.874Z,92.07692
2022-09-02T04:28:46.671Z,92.43373
2022-09-02T04:33:48.278Z,92.07692
2022-09-02T04:38:49.868Z,96.47525
2022-09-02T04:43:51.469Z,108.70588
2022-09-02T04:48:53.095Z,109.5914
2022-09-02T04:53:54.696Z,112.30601
2022-09-02T04:58:56.346Z,122.55072
2022-09-02T05:03:58.151Z,110.03774
2022-09-02T05:08:59.790Z,105.25654
2022-09-02T05:14:01.428Z,97.61596
2022-09-02T05:19:03.126Z,99.55556
2022-09-02T05:24:04.880Z,91.01671
2022-09-02T05:29:06.542Z,84
2022-09-02T05:34:08.217Z,94.98039
2022-09-02T05:39:09.896Z,92.43373
2022-09-02T05:44:11.536Z,94.98039
2022-09-02T05:49:13.150Z,105.67979
2022-09-02T05:54:15.000Z,113.69697
2022-09-02T05:59:16.635Z,126.24852
2022-09-02T06:04:18.311Z,110.48649
2022-09-02T06:09:19.962Z,112.30601
2022-09-02T06:14:21.654Z,94.61125
2022-09-02T06:19:23.340Z,96.09877
2022-09-02T06:24:25.205Z,99.16373
2022-09-02T06:29:26.863Z,91.01671
2022-09-02T06:34:28.534Z,88.2623
2022-09-02T06:39:30.172Z,101.94872
2022-09-02T06:44:32.693Z,104
2022-09-02T06:49:34.541Z,100.34518
2022-09-02T06:54:36.172Z,93.51456
2022-09-02T06:59:37.824Z,112.30601
2022-09-02T07:04:39.506Z,95.72414
2022-09-02T07:09:41.150Z,107.82979
2022-09-02T07:14:42.788Z,88.60094
2022-09-02T07:19:44.621Z,83.68254
2022-09-02T07:24:46.288Z,87.58974
2022-09-02T07:29:47.954Z,78.79212
2022-09-02T07:34:49.600Z,78.20479
2022-09-02T07:39:51.271Z,78.49782
2022-09-02T07:44:52.942Z,85.6092
2022-09-02T07:50:21.069Z,99.16373
2022-09-02T07:55:23.389Z,105.67979
2022-09-02T08:00:25.043Z,88.2623
2022-09-02T08:05:26.712Z,81.80761
2022-09-02T08:10:28.363Z,84.63927
2022-09-02T08:15:30.023Z,96.8536
2022-09-02T08:20:31.661Z,112.76712
2022-09-02T08:25:33.267Z,113.23077
2022-09-02T08:30:34.839Z,89.28302
2022-09-02T08:35:36.467Z,84.9611
2022-09-02T08:40:38.186Z,118.0113
2022-09-02T08:45:39.950Z,98
2022-09-02T08:50:41.601Z,100.743
2022-09-02T08:55:43.220Z,119
2022-09-02T09:00:44.824Z,110.93767
2022-09-02T09:05:46.445Z,113.69697
2022-09-02T09:10:48.028Z,110.48649
2022-09-02T09:15:49.645Z,114.63712
2022-09-02T09:20:51.352Z,92.79227
2022-09-02T09:25:52.935Z,99.55556
2022-09-02T09:30:54.553Z,85.2844
2022-09-02T09:35:56.147Z,94.2439
2022-09-02T09:40:57.745Z,128.98498
2022-09-02T09:45:59.613Z,125.17647
2022-09-02T09:51:01.296Z,112.76712
2022-09-02T09:56:02.936Z,140.17834
2022-09-02T10:01:04.642Z,130.10272
2022-09-02T10:06:06.261Z,112.30601
2022-09-02T10:11:07.866Z,116.06704
2022-09-02T10:16:09.506Z,106.96296
2022-09-02T10:21:15.179Z,91.01671
2022-09-02T10:26:17.789Z,85.93548
2022-09-02T10:31:19.427Z,103.17313
2022-09-02T10:36:25.294Z,92.79227
2022-09-02T10:41:27.243Z,84
2022-09-02T10:46:28.901Z,79.68282
2022-09-02T10:51:30.564Z,85.6092
2022-09-02T10:56:32.164Z,89.28302
2022-09-02T11:01:33.764Z,83.05192
2022-09-02T11:06:45.774Z,97.23383
2022-09-02T11:12:00.651Z,112.76712
2022-09-02T11:17:02.252Z,90.66667
2022-09-02T11:22:03.976Z,107.82979
2022-09-02T11:27:11.849Z,104.83551
2022-09-02T11:32:27.410Z,101.14286
2022-09-02T11:37:29.007Z,94.98039
2022-09-02T11:42:30.671Z,104.83551
2022-09-02T11:47:32.288Z,123.59184
2022-09-02T11:52:33.886Z,142.07074
2022-09-02T11:57:35.644Z,112.30601
2022-09-02T12:02:37.216Z,117.52113
2022-09-02T12:07:38.800Z,141.4359
2022-09-02T12:12:40.384Z,131.80488
2022-09-02T12:17:41.966Z,160.90141
2022-09-02T12:22:43.557Z,112.76712
2022-09-02T12:27:45.132Z,125.17647
2022-09-02T12:32:46.760Z,106.53298
2022-09-02T12:37:48.330Z,92.43373
2022-09-02T12:42:49.913Z,104.83551
2022-09-02T12:47:51.559Z,86.26328
2022-09-02T12:52:53.385Z,110.93767
2022-09-02T12:57:54.964Z,97.23383
2022-09-02T13:02:56.576Z,93.51456
2022-09-02T13:07:59.101Z,132.3792
2022-09-02T13:13:04.072Z,114.63712
2022-09-02T13:18:05.836Z,91.01671
2022-09-02T13:23:07.522Z,85.2844
2022-09-02T13:28:09.854Z,103.58549
2022-09-02T13:33:11.711Z,94.61125
2022-09-02T13:38:13.338Z,98
2022-09-02T13:43:15.071Z,88.60094
2022-09-02T13:48:16.709Z,89.28302
2022-09-02T13:53:59.429Z,79.38462
2022-09-02T13:59:07.079Z,75.90578
2022-09-02T14:04:08.708Z,73.68421
2022-09-02T14:09:11.771Z,77.91304
2022-09-02T14:14:14.371Z,118.0113
2022-09-02T14:19:19.095Z,116.06704
2022-09-02T14:24:20.873Z,96.8536
2022-09-02T14:29:22.522Z,110.03774
2022-09-02T14:34:24.155Z,96.8536
2022-09-02T14:39:25.894Z,94.2439
2022-09-02T14:44:27.499Z,102.35476
2022-09-02T14:49:29.182Z,98.77387
2022-09-02T14:54:30.801Z,138.93671
2022-09-02T14:59:32.561Z,139.55556
2022-09-02T15:04:34.219Z,166.38267
2022-09-02T15:09:35.896Z,179.1145
2022-09-02T15:14:37.529Z,180.01533
2022-09-02T15:19:39.125Z,159.38462
2022-09-02T15:24:40.705Z,181.83784
2022-09-02T15:29:42.293Z,195.42857
2022-09-02T15:34:44.029Z,202.82353
2022-09-02T15:39:45.780Z,178.22053
2022-09-02T15:44:47.458Z,202.82353
2022-09-02T15:49:49.096Z,199.60166
2022-09-02T15:54:50.749Z,198.54545
2022-09-02T15:59:52.371Z,194.4065
2022-09-02T16:04:53.995Z,217.77778
2022-09-02T16:09:57.953Z,229.18519
2022-09-02T16:15:01.630Z,217.77778
2022-09-02T16:20:03.229Z,225.27854
2022-09-02T16:25:04.834Z,227.87097
2022-09-02T16:30:06.503Z,215.36564
2022-09-02T16:35:08.099Z,238.73684
2022-09-02T16:40:09.795Z,214.17544
2022-09-02T16:45:11.506Z,224
2022-09-02T16:50:13.116Z,302.13953
2022-09-02T16:55:14.779Z,263.17098
2022-09-02T17:00:16.412Z,253.54774
2022-09-02T17:05:18.077Z,250.46766
2022-09-02T17:10:19.727Z,282.46154
2022-09-02T17:15:21.316Z,333.87342
2022-09-02T17:20:22.941Z,269.92593
2022-09-02T17:25:24.566Z,284.33149
2022-09-02T17:30:26.305Z,264.83333
2022-09-02T17:35:27.930Z,280.61202
2022-09-02T17:40:29.603Z,268.21053
2022-09-02T17:45:31.550Z,292.0226
2022-09-02T17:50:33.197Z,344
2022-09-02T17:55:34.850Z,292.0226
2022-09-02T18:00:36.449Z,302.13953
2022-09-02T18:05:38.100Z,300.06936
2022-09-02T18:10:39.721Z,310.66667
2022-09-02T18:15:41.339Z,300.06936
2022-09-02T18:20:42.998Z,324.24691
2022-09-02T18:25:44.775Z,349.26316
2022-09-02T18:30:46.493Z,363.04762
2022-09-02T18:35:48.131Z,338.87179
2022-09-02T18:40:49.720Z,374.76923
2022-09-02T18:45:51.337Z,336.35669
2022-09-02T18:50:52.956Z,357.42282
2022-09-02T18:55:54.538Z,349.26316
2022-09-02T19:00:56.224Z,432.88889
2022-09-02T19:05:57.887Z,453.09091
2022-09-02T19:10:59.575Z,377.80282
2022-09-02T19:16:04.133Z,390.37681
2022-09-02T19:21:06.699Z,377.80282
2022-09-02T19:26:08.423Z,351.94702
2022-09-02T19:31:15.211Z,377.80282
2022-09-02T19:36:19.722Z,317.33333
2022-09-02T19:41:21.338Z,326.6087
2022-09-02T19:47:04.087Z,321.91411
2022-09-02T19:52:13.912Z,380.87943
2022-09-02T19:57:15.534Z,436.8
2022-09-02T20:02:17.248Z,425.25
2022-09-02T20:07:18.950Z,403.70149
2022-09-02T20:12:20.550Z,421.51938
2022-09-02T20:17:22.137Z,377.80282
2022-09-02T20:22:23.778Z,498.95495
2022-09-02T20:27:25.364Z,494
2022-09-02T20:32:26.965Z,484.35088
2022-09-02T20:37:28.643Z,489.13274
2022-09-02T20:42:30.260Z,620.92308
2022-09-02T20:47:31.845Z,466.0339
2022-09-02T20:52:33.450Z,525.13208
2022-09-02T20:57:35.123Z,440.77419
2022-09-02T21:02:36.735Z,479.65217
2022-09-02T21:07:38.312Z,514.37037
2022-09-02T21:12:43.373Z,566.22222
2022-09-02T21:17:48.465Z,599.31915
2022-09-02T21:22:50.757Z,536.30769
2022-09-02T21:27:55.017Z,504
2022-09-02T21:32:56.610Z,636.13483
2022-09-02T21:37:58.281Z,677.33333
2022-09-02T21:42:59.920Z,628.44444
2022-09-02T21:48:01.623Z,668.70588
2022-09-02T21:53:03.269Z,466.0339
2022-09-02T21:58:04.853Z,572.57143
2022-09-02T22:03:06.602Z,579.05155
2022-09-02T22:08:08.255Z,660.27907
2022-09-02T22:13:09.900Z,620.92308
2022-09-02T22:18:11.542Z,572.57143
2022-09-02T22:23:13.127Z,677.33333
2022-09-02T22:28:16.443Z,660.27907
2022-09-02T22:33:18.101Z,765.33333
2022-09-02T22:38:19.811Z,453.09091
2022-09-02T22:43:21.481Z,660.27907
2022-09-02T22:48:23.142Z,461.64706
2022-09-02T22:53:24.847Z,613.56522
2022-09-02T22:58:26.451Z,592.42105
2022-09-02T23:03:28.133Z,704.49383
2022-09-02T23:08:29.840Z,585.66667
2022-09-02T23:13:31.665Z,514.37037
2022-09-02T23:18:33.253Z,606.36559
2022-09-02T23:23:34.995Z,606.36559
2022-09-02T23:28:36.626Z,585.66667
2022-09-02T23:33:38.202Z,695.21951
2022-09-02T23:38:39.993Z,425.25
2022-09-02T23:43:41.601Z,410.66667
2022-09-02T23:48:44.141Z,371.77778
2022-09-02T23:53:46.037Z,360.21622
2022-09-02T23:58:47.652Z,349.26316
